createdAt,value
2016-11-21T22:14:07.119Z,1003.19
2016-11-21T22:15:18.365Z,1003.21
2016-11-21T22:16:31.130Z,1003.18
2016-11-21T22:17:41.870Z,1003.21
2016-11-21T22:18:52.721Z,1003.18
2016-11-21T22:20:04.155Z,1003.19
2016-11-21T22:21:15.559Z,1003.23
2016-11-21T22:22:27.712Z,1003.25
2016-11-21T22:23:39.672Z,1003.26
2016-11-21T22:24:50.212Z,1003.25
2016-11-21T22:26:03.015Z,1003.27
2016-11-21T22:27:14.239Z,1003.23
2016-11-21T22:28:25.698Z,1003.27
2016-11-21T22:29:37.791Z,1003.22
2016-11-21T22:30:48.352Z,1003.17
2016-11-21T22:32:00.275Z,1003.2
2016-11-21T22:33:12.779Z,1003.16
2016-11-21T22:34:24.784Z,1003.17
2016-11-21T22:35:37.126Z,1003.15
2016-11-21T22:36:49.014Z,1003.14
2016-11-21T22:38:00.761Z,1003.17
2016-11-21T22:39:13.405Z,1003.23
2016-11-21T22:40:25.678Z,1003.28
2016-11-21T22:41:37.420Z,1003.27
2016-11-21T22:42:47.907Z,1003.31
2016-11-21T22:43:59.475Z,1003.33
2016-11-21T22:45:10.573Z,1003.28
2016-11-21T22:46:23.196Z,1003.28
2016-11-21T22:47:35.879Z,1003.26
2016-11-21T22:48:49.125Z,1003.23
2016-11-21T22:50:00.795Z,1003.24
2016-11-21T22:51:12.956Z,1003.21
2016-11-21T22:52:24.924Z,1003.23
2016-11-21T22:53:36.209Z,1003.2
2016-11-21T22:54:47.768Z,1003.27
2016-11-21T22:55:59.586Z,1003.29
2016-11-21T22:57:11.082Z,1003.28
2016-11-21T22:58:24.265Z,1003.29
2016-11-21T22:59:36.128Z,1003.29
2016-11-21T23:00:48.634Z,1003.28
2016-11-21T23:02:00.216Z,1003.29
2016-11-21T23:03:12.879Z,1003.3
2016-11-21T23:04:25.520Z,1003.31
2016-11-21T23:05:37.660Z,1003.34
2016-11-21T23:06:50.311Z,1003.36
2016-11-21T23:08:01.854Z,1003.36
2016-11-21T23:09:13.764Z,1003.33
2016-11-21T23:10:25.182Z,1003.32
2016-11-21T23:11:38.426Z,1003.37
2016-11-21T23:12:51.510Z,1003.42
2016-11-21T23:14:02.685Z,1003.51
2016-11-21T23:15:14.802Z,1003.54
2016-11-21T23:16:26.820Z,1003.55
2016-11-21T23:17:39.452Z,1003.52
2016-11-21T23:18:51.068Z,1003.51
2016-11-21T23:20:03.062Z,1003.46
2016-11-21T23:21:13.411Z,1003.42
2016-11-21T23:22:24.880Z,1003.44
2016-11-21T23:23:36.294Z,1003.47
2016-11-21T23:24:48.781Z,1003.45
2016-11-21T23:26:01.007Z,1003.45
2016-11-21T23:27:13.559Z,1003.45
2016-11-21T23:28:25.977Z,1003.46
2016-11-21T23:29:36.921Z,1003.46
2016-11-21T23:30:49.482Z,1003.47
2016-11-21T23:32:00.810Z,1003.49
2016-11-21T23:33:11.976Z,1003.55
2016-11-21T23:34:23.970Z,1003.55
2016-11-21T23:35:35.540Z,1003.52
2016-11-21T23:36:48.794Z,1003.49
2016-11-21T23:38:00.185Z,1003.45
2016-11-21T23:39:12.589Z,1003.49
2016-11-21T23:40:25.020Z,1003.45
2016-11-21T23:41:37.775Z,1003.46
2016-11-21T23:42:49.093Z,1003.41
2016-11-21T23:44:01.005Z,1003.39
2016-11-21T23:45:12.375Z,1003.33
2016-11-21T23:46:24.581Z,1003.26
2016-11-21T23:47:36.459Z,1003.28
2016-11-21T23:48:47.724Z,1003.24
2016-11-21T23:49:59.653Z,1003.21
2016-11-21T23:51:11.404Z,1003.21
2016-11-21T23:52:23.055Z,1003.18
2016-11-21T23:53:36.303Z,1003.21
2016-11-21T23:54:48.149Z,1003.17
2016-11-21T23:55:59.150Z,1003.17
2016-11-21T23:57:11.252Z,1003.16
2016-11-21T23:58:23.930Z,1003.11
2016-11-21T23:59:36.109Z,1003.07
